createdAt,value
2019-02-20T00:00:01.833Z,9.20
2019-02-20T00:02:33.619Z,8.00
2019-02-20T00:05:04.122Z,8.13
2019-02-20T00:07:34.847Z,9.03
2019-02-20T00:10:05.638Z,9.47
2019-02-20T00:12:36.253Z,8.63
2019-02-20T00:15:06.753Z,8.53
2019-02-20T00:17:37.158Z,8.40
2019-02-20T00:20:08.033Z,9.63
2019-02-20T00:22:40.636Z,8.03
2019-02-20T00:25:11.244Z,8.93
2019-02-20T00:27:41.641Z,7.90
2019-02-20T00:30:11.987Z,8.13
2019-02-20T00:32:42.263Z,9.20
2019-02-20T00:35:12.371Z,8.27
2019-02-20T00:37:42.591Z,8.50
2019-02-20T00:40:12.746Z,9.00
2019-02-20T00:42:43.047Z,8.17
2019-02-20T00:45:47.812Z,8.23
2019-02-20T00:48:26.332Z,7.60
2019-02-20T00:51:04.697Z,7.73
2019-02-20T00:53:40.301Z,7.50
2019-02-20T00:56:10.423Z,8.30
2019-02-20T00:58:40.733Z,7.83
2019-02-20T01:01:11.001Z,7.50
2019-02-20T01:03:41.122Z,7.80
2019-02-20T01:06:11.360Z,8.20
2019-02-20T01:08:41.972Z,6.33
2019-02-20T01:11:12.273Z,7.60
2019-02-20T01:13:42.787Z,8.37
2019-02-20T01:16:13.094Z,7.63
2019-02-20T01:18:43.413Z,6.70
2019-02-20T01:21:13.613Z,8.30
2019-02-20T01:23:43.802Z,6.67
2019-02-20T01:26:13.944Z,8.10
2019-02-20T01:28:44.091Z,7.33
2019-02-20T01:31:14.316Z,6.87
2019-02-20T01:33:44.457Z,7.97
2019-02-20T01:36:14.697Z,9.07
2019-02-20T01:38:44.881Z,7.10
2019-02-20T01:41:15.106Z,7.27
2019-02-20T01:43:46.308Z,7.00
2019-02-20T01:46:16.415Z,7.67
2019-02-20T01:48:46.702Z,7.43
2019-02-20T01:51:17.238Z,7.97
2019-02-20T01:53:47.793Z,7.73
2019-02-20T01:56:19.096Z,7.60
2019-02-20T01:58:49.241Z,7.62
2019-02-20T02:01:19.565Z,7.60
2019-02-20T02:03:49.798Z,7.50
2019-02-20T02:06:19.952Z,7.73
2019-02-20T02:08:50.090Z,7.70
2019-02-20T02:11:20.339Z,7.60
2019-02-20T02:13:50.504Z,7.28
2019-02-20T02:16:20.796Z,6.70
2019-02-20T02:18:50.954Z,6.80
2019-02-20T02:21:21.144Z,7.70
2019-02-20T02:23:51.263Z,7.80
2019-02-20T02:26:21.442Z,7.27
2019-02-20T02:28:51.573Z,7.33
2019-02-20T02:31:21.803Z,6.27
2019-02-20T02:33:52.095Z,6.73
2019-02-20T02:36:22.217Z,7.40
2019-02-20T02:38:52.361Z,7.00
2019-02-20T02:41:23.552Z,6.80
2019-02-20T02:43:53.732Z,7.30
2019-02-20T02:46:24.086Z,7.40
2019-02-20T02:48:54.368Z,7.00
2019-02-20T02:51:25.603Z,8.17
2019-02-20T02:53:55.724Z,8.77
2019-02-20T02:56:25.975Z,8.00
2019-02-20T02:58:56.453Z,8.10
2019-02-20T03:01:26.999Z,6.90
2019-02-20T03:03:57.214Z,7.73
2019-02-20T03:06:27.387Z,8.30
2019-02-20T03:08:57.749Z,7.77
2019-02-20T03:11:27.928Z,7.93
2019-02-20T03:13:58.197Z,7.87
2019-02-20T03:16:28.537Z,8.30
2019-02-20T03:18:58.692Z,8.20
2019-02-20T03:21:29.032Z,7.80
2019-02-20T03:23:59.631Z,7.77
2019-02-20T03:26:29.924Z,7.90
2019-02-20T03:29:00.110Z,8.33
2019-02-20T03:31:30.588Z,7.67
2019-02-20T03:34:00.921Z,8.50
2019-02-20T03:36:31.020Z,7.57
2019-02-20T03:39:01.338Z,7.87
2019-02-20T03:41:33.088Z,7.70
2019-02-20T03:44:03.475Z,7.50
2019-02-20T03:46:33.588Z,7.73
2019-02-20T03:49:03.986Z,7.62
2019-02-20T03:51:34.101Z,8.10
2019-02-20T03:54:04.356Z,7.60
2019-02-20T03:56:34.610Z,7.83
2019-02-20T03:59:04.838Z,8.15
2019-02-20T04:01:34.977Z,7.28
2019-02-20T04:04:05.531Z,7.07
2019-02-20T04:06:35.963Z,6.80
2019-02-20T04:09:07.970Z,6.23
2019-02-20T04:11:38.279Z,6.90
2019-02-20T04:14:08.560Z,7.87
2019-02-20T04:16:42.627Z,7.10
2019-02-20T04:19:12.802Z,7.33
2019-02-20T04:21:43.083Z,7.20
2019-02-20T04:24:13.501Z,8.20
2019-02-20T04:26:43.846Z,7.20
2019-02-20T04:29:14.312Z,7.37
2019-02-20T04:31:44.779Z,7.30
2019-02-20T04:34:15.009Z,7.13
2019-02-20T04:36:45.312Z,7.43
2019-02-20T04:39:15.543Z,7.57
2019-02-20T04:41:45.788Z,6.70
2019-02-20T04:44:15.917Z,7.60
2019-02-20T04:46:46.025Z,7.70
2019-02-20T04:49:16.347Z,7.50
2019-02-20T04:51:46.632Z,7.83
2019-02-20T04:54:16.905Z,7.40
2019-02-20T04:56:47.019Z,7.50
2019-02-20T04:59:17.153Z,7.10
2019-02-20T05:01:47.264Z,6.77
2019-02-20T05:04:17.697Z,6.95
2019-02-20T05:06:47.836Z,7.00
2019-02-20T05:09:18.059Z,6.30
2019-02-20T05:11:48.155Z,7.40
2019-02-20T05:14:18.315Z,7.37
2019-02-20T05:16:48.518Z,6.80
2019-02-20T05:19:18.796Z,7.50
2019-02-20T05:21:49.027Z,6.77
2019-02-20T05:24:24.797Z,7.20
2019-02-20T05:26:51.043Z,13.80
2019-02-20T05:29:21.278Z,7.37
2019-02-20T05:31:51.670Z,7.67
2019-02-20T05:34:21.861Z,7.67
2019-02-20T05:36:52.184Z,7.00
2019-02-20T05:39:22.403Z,7.60
2019-02-20T05:41:52.628Z,7.07
2019-02-20T05:44:22.907Z,8.43
2019-02-20T05:46:53.144Z,6.97
2019-02-20T05:49:23.602Z,7.83
2019-02-20T05:51:54.038Z,9.33
2019-02-20T05:54:33.811Z,9.15
2019-02-20T05:56:56.455Z,8.00
2019-02-20T05:59:26.642Z,8.10
2019-02-20T06:01:56.957Z,7.47
2019-02-20T06:04:27.975Z,8.47
2019-02-20T06:06:58.354Z,8.17
2019-02-20T06:09:28.544Z,9.27
2019-02-20T06:11:58.740Z,7.57
2019-02-20T06:14:28.882Z,8.70
2019-02-20T06:16:59.234Z,8.60
2019-02-20T06:19:29.491Z,8.43
2019-02-20T06:21:59.624Z,8.50
2019-02-20T06:24:29.992Z,8.90
2019-02-20T06:27:00.136Z,7.93
2019-02-20T06:29:30.627Z,8.40
2019-02-20T06:32:02.123Z,8.70
2019-02-20T06:34:33.310Z,7.90
2019-02-20T06:37:05.483Z,8.23
2019-02-20T06:39:35.842Z,8.30
2019-02-20T06:42:06.035Z,10.47
2019-02-20T06:44:36.419Z,8.03
2019-02-20T06:47:06.892Z,8.63
2019-02-20T06:49:37.330Z,8.37
2019-02-20T06:52:07.603Z,8.30
2019-02-20T06:54:37.894Z,7.53
2019-02-20T06:57:08.091Z,16.07
2019-02-20T06:59:38.279Z,17.62
2019-02-20T07:02:08.452Z,10.13
2019-02-20T07:04:39.008Z,10.50
2019-02-20T07:07:30.834Z,8.43
2019-02-20T07:10:38.338Z,8.90
2019-02-20T07:13:31.934Z,9.27
2019-02-20T07:16:34.391Z,8.40
2019-02-20T07:19:20.355Z,9.17
2019-02-20T07:22:26.868Z,9.47
2019-02-20T07:25:31.653Z,10.72
2019-02-20T07:28:55.924Z,11.20
2019-02-20T07:31:26.188Z,10.57
2019-02-20T07:33:56.499Z,11.00
2019-02-20T07:36:27.002Z,10.03
2019-02-20T07:38:57.622Z,11.20
2019-02-20T07:41:27.838Z,15.03
2019-02-20T07:43:58.179Z,16.20
2019-02-20T07:46:28.452Z,11.67
2019-02-20T07:48:58.930Z,12.18
2019-02-20T07:51:29.307Z,10.27
2019-02-20T07:53:59.658Z,12.73
2019-02-20T07:56:31.110Z,14.73
2019-02-20T07:59:01.287Z,12.63
2019-02-20T08:01:31.442Z,17.13
2019-02-20T08:04:01.659Z,14.33
2019-02-20T08:06:31.882Z,16.33
2019-02-20T08:09:02.487Z,16.70
2019-02-20T08:11:34.733Z,16.07
2019-02-20T08:14:05.244Z,15.70
2019-02-20T08:16:36.583Z,12.70
2019-02-20T08:19:06.759Z,13.53
2019-02-20T08:21:37.035Z,13.50
2019-02-20T08:24:07.225Z,15.40
2019-02-20T08:26:37.782Z,16.70
2019-02-20T08:29:08.348Z,14.47
2019-02-20T08:31:38.596Z,15.77
2019-02-20T08:34:08.882Z,16.02
2019-02-20T08:36:39.012Z,15.27
2019-02-20T08:39:09.688Z,14.17
2019-02-20T08:41:40.108Z,16.87
2019-02-20T08:44:10.531Z,15.60
2019-02-20T08:46:40.784Z,16.80
2019-02-20T08:49:10.974Z,16.27
2019-02-20T08:51:41.293Z,15.80
2019-02-20T08:54:11.932Z,15.70
2019-02-20T08:56:42.251Z,14.90
2019-02-20T08:59:12.647Z,14.00
2019-02-20T09:01:43.089Z,13.20
2019-02-20T09:04:13.618Z,13.27
2019-02-20T09:06:44.343Z,13.07
2019-02-20T09:09:14.640Z,12.70
2019-02-20T09:11:45.683Z,12.60
2019-02-20T09:14:15.969Z,15.20
2019-02-20T09:16:46.365Z,17.20
2019-02-20T09:19:17.073Z,13.97
2019-02-20T09:21:47.520Z,13.40
2019-02-20T09:24:17.915Z,13.50
2019-02-20T09:26:48.391Z,14.30
2019-02-20T09:29:18.877Z,14.47
2019-02-20T09:31:49.158Z,15.20
2019-02-20T09:34:19.387Z,12.63
2019-02-20T09:36:49.614Z,12.57
2019-02-20T09:39:40.036Z,12.30
2019-02-20T09:42:12.145Z,12.47
2019-02-20T09:44:51.517Z,14.10
2019-02-20T09:47:21.755Z,14.70
2019-02-20T09:49:52.117Z,13.07
2019-02-20T09:52:22.551Z,13.87
2019-02-20T09:54:53.045Z,12.50
2019-02-20T09:57:23.318Z,13.27
2019-02-20T09:59:53.673Z,11.43
2019-02-20T10:02:23.790Z,11.50
2019-02-20T10:04:54.030Z,11.73
2019-02-20T10:07:24.186Z,11.63
2019-02-20T10:09:54.812Z,11.83
2019-02-20T10:12:25.330Z,12.93
2019-02-20T10:14:55.559Z,11.07
2019-02-20T10:17:25.906Z,11.87
2019-02-20T10:19:56.079Z,11.90
2019-02-20T10:22:26.251Z,9.63
2019-02-20T10:24:56.511Z,9.90
2019-02-20T10:27:26.774Z,8.63
2019-02-20T10:29:56.979Z,8.63
2019-02-20T10:32:28.244Z,9.77
2019-02-20T10:34:58.398Z,8.10
2019-02-20T10:37:29.059Z,7.50
2019-02-20T10:39:59.555Z,7.78
2019-02-20T10:42:30.002Z,7.40
2019-02-20T10:45:00.795Z,8.33
2019-02-20T10:47:31.347Z,7.33
2019-02-20T10:50:01.565Z,7.53
2019-02-20T10:52:32.233Z,6.90
2019-02-20T10:55:02.575Z,6.53
2019-02-20T10:57:33.170Z,6.72
2019-02-20T11:00:03.807Z,7.22
2019-02-20T11:02:36.223Z,7.40
2019-02-20T11:05:06.680Z,7.83
2019-02-20T11:07:37.661Z,8.13
2019-02-20T11:10:12.475Z,8.73
2019-02-20T11:12:42.979Z,8.53
2019-02-20T11:15:13.726Z,7.50
2019-02-20T11:17:45.152Z,7.05
2019-02-20T11:20:15.456Z,7.63
2019-02-20T11:22:45.894Z,8.10
2019-02-20T11:25:16.594Z,9.17
2019-02-20T11:27:47.070Z,8.23
2019-02-20T11:30:18.979Z,9.00
2019-02-20T11:32:49.615Z,8.60
2019-02-20T11:35:20.351Z,9.60
2019-02-20T11:37:50.607Z,9.70
2019-02-20T11:40:21.137Z,9.20
2019-02-20T11:42:51.822Z,8.87
2019-02-20T11:45:22.255Z,10.30
2019-02-20T11:47:52.704Z,8.37
2019-02-20T11:50:23.468Z,8.40
2019-02-20T11:52:53.953Z,8.98
2019-02-20T11:55:24.384Z,7.40
2019-02-20T11:58:00.639Z,7.90
2019-02-20T12:00:27.985Z,7.73
2019-02-20T12:02:58.470Z,7.60
2019-02-20T12:05:29.007Z,6.93
2019-02-20T12:07:59.551Z,6.97
2019-02-20T12:10:30.143Z,6.77
2019-02-20T12:13:01.231Z,7.77
2019-02-20T12:15:31.744Z,6.97
2019-02-20T12:18:01.985Z,6.60
2019-02-20T12:20:32.709Z,6.93
2019-02-20T12:23:03.754Z,6.83
2019-02-20T12:25:34.621Z,6.67
2019-02-20T12:28:06.901Z,7.67
2019-02-20T12:30:38.077Z,6.43
2019-02-20T12:33:10.320Z,6.37
2019-02-20T12:35:42.278Z,6.90
2019-02-20T12:38:14.805Z,7.27
2019-02-20T12:40:45.240Z,6.67
2019-02-20T12:43:15.990Z,7.50
2019-02-20T12:45:46.357Z,7.50
2019-02-20T12:48:16.595Z,6.00
2019-02-20T12:50:47.175Z,6.07
2019-02-20T12:53:17.516Z,6.10
2019-02-20T12:55:48.328Z,7.27
2019-02-20T12:58:20.529Z,12.20
2019-02-20T13:00:52.380Z,8.27
2019-02-20T13:03:23.003Z,7.30
2019-02-20T13:05:53.777Z,6.50
2019-02-20T13:08:25.361Z,9.70
2019-02-20T13:10:57.284Z,12.00
2019-02-20T13:13:27.678Z,11.60
2019-02-20T13:15:58.150Z,6.50
2019-02-20T13:18:28.849Z,7.43
2019-02-20T13:20:59.364Z,7.47
2019-02-20T13:23:29.721Z,7.27
2019-02-20T13:26:00.368Z,7.30
2019-02-20T13:28:30.808Z,8.20
2019-02-20T13:31:01.956Z,7.00
2019-02-20T13:33:32.285Z,8.40
2019-02-20T13:36:03.167Z,6.83
2019-02-20T13:38:33.431Z,7.17
2019-02-20T13:41:03.831Z,7.17
2019-02-20T13:43:34.127Z,6.70
2019-02-20T13:46:04.695Z,8.73
2019-02-20T13:48:35.213Z,7.90
2019-02-20T13:51:05.599Z,7.83
2019-02-20T13:53:36.244Z,8.50
2019-02-20T13:56:07.006Z,7.87
2019-02-20T13:58:37.231Z,7.73
2019-02-20T14:01:08.898Z,7.93
2019-02-20T14:03:39.461Z,7.80
2019-02-20T14:06:10.194Z,7.60
2019-02-20T14:08:40.598Z,12.30
2019-02-20T14:11:11.268Z,8.50
2019-02-20T14:13:41.786Z,8.20
2019-02-20T14:16:12.263Z,8.60
2019-02-20T14:18:42.553Z,8.03
2019-02-20T14:21:12.901Z,8.57
2019-02-20T14:23:43.679Z,8.30
2019-02-20T14:26:14.347Z,7.67
2019-02-20T14:28:44.794Z,7.17
2019-02-20T14:31:16.262Z,8.07
2019-02-20T14:33:46.678Z,8.90
2019-02-20T14:36:16.880Z,20.83
2019-02-20T14:38:48.013Z,13.40
2019-02-20T14:41:18.736Z,9.03
2019-02-20T14:43:49.199Z,8.23
2019-02-20T14:46:19.584Z,7.80
2019-02-20T14:48:49.915Z,7.80
2019-02-20T14:51:20.874Z,8.27
2019-02-20T14:53:51.848Z,7.50
2019-02-20T14:56:22.142Z,7.33
2019-02-20T14:58:52.611Z,8.30
2019-02-20T15:01:23.184Z,8.87
2019-02-20T15:03:53.585Z,14.63
2019-02-20T15:06:24.161Z,14.73
2019-02-20T15:08:54.733Z,8.57
2019-02-20T15:11:25.294Z,12.10
2019-02-20T15:13:56.542Z,10.70
2019-02-20T15:16:26.734Z,9.87
2019-02-20T15:18:57.457Z,9.10
2019-02-20T15:21:28.079Z,12.67
2019-02-20T15:23:58.369Z,9.43
2019-02-20T15:26:28.686Z,7.63
2019-02-20T15:28:59.267Z,7.87
2019-02-20T15:31:33.717Z,9.30
2019-02-20T15:34:01.871Z,7.00
2019-02-20T15:36:34.035Z,7.80
2019-02-20T15:39:05.518Z,8.60
2019-02-20T15:41:37.548Z,8.00
2019-02-20T15:44:07.706Z,7.13
2019-02-20T15:46:37.966Z,8.03
2019-02-20T15:49:08.799Z,7.80
2019-02-20T15:51:39.130Z,8.43
2019-02-20T15:54:09.481Z,7.53
2019-02-20T15:56:39.782Z,7.13
2019-02-20T15:59:10.087Z,8.43
2019-02-20T16:01:40.932Z,8.80
2019-02-20T16:04:11.302Z,9.10
2019-02-20T16:06:41.744Z,9.27
2019-02-20T16:09:12.398Z,9.33
2019-02-20T16:11:42.775Z,7.73
2019-02-20T16:14:13.156Z,7.50
2019-02-20T16:16:43.765Z,7.60
2019-02-20T16:19:14.271Z,8.00
2019-02-20T16:21:44.626Z,8.60
2019-02-20T16:24:14.859Z,8.10
2019-02-20T16:26:45.689Z,8.20
2019-02-20T16:29:16.175Z,7.85
2019-02-20T16:31:46.976Z,7.90
2019-02-20T16:34:17.996Z,7.57
2019-02-20T16:36:49.313Z,7.73
2019-02-20T16:39:19.821Z,8.53
2019-02-20T16:41:50.021Z,7.80
2019-02-20T16:44:20.345Z,9.40
2019-02-20T16:46:50.567Z,8.60
2019-02-20T16:49:20.834Z,9.73
2019-02-20T16:51:52.352Z,8.30
2019-02-20T16:54:23.203Z,9.33
2019-02-20T16:56:53.539Z,7.97
2019-02-20T16:59:24.343Z,9.70
2019-02-20T17:01:54.630Z,9.30
2019-02-20T17:04:25.437Z,11.07
2019-02-20T17:06:55.988Z,10.30
2019-02-20T17:09:26.309Z,11.80
2019-02-20T17:11:57.073Z,12.57
2019-02-20T17:14:27.656Z,11.45
2019-02-20T17:16:58.002Z,10.73
2019-02-20T17:19:28.927Z,11.10
2019-02-20T17:21:59.138Z,11.63
2019-02-20T17:24:29.466Z,13.63
2019-02-20T17:27:00.072Z,11.20
2019-02-20T17:29:30.504Z,12.53
2019-02-20T17:32:00.892Z,10.88
2019-02-20T17:34:31.234Z,11.17
2019-02-20T17:37:01.566Z,12.57
2019-02-20T17:39:32.146Z,13.77
2019-02-20T17:42:02.846Z,11.70
2019-02-20T17:44:33.363Z,13.03
2019-02-20T17:47:03.731Z,9.50
2019-02-20T17:49:34.060Z,12.00
2019-02-20T17:52:04.712Z,11.03
2019-02-20T17:54:35.363Z,9.90
2019-02-20T17:57:05.638Z,12.50
2019-02-20T17:59:36.083Z,11.25
2019-02-20T18:02:06.764Z,10.67
2019-02-20T18:04:37.188Z,9.07
2019-02-20T18:07:07.510Z,10.07
2019-02-20T18:09:37.750Z,9.40
2019-02-20T18:12:08.039Z,10.03
2019-02-20T18:14:38.682Z,9.20
2019-02-20T18:17:09.218Z,9.30
2019-02-20T18:19:39.533Z,9.63
2019-02-20T18:22:10.021Z,10.83
2019-02-20T18:24:40.832Z,10.40
2019-02-20T18:27:12.250Z,10.53
2019-02-20T18:29:42.823Z,10.95
2019-02-20T18:32:14.159Z,9.80
2019-02-20T18:34:44.591Z,11.53
2019-02-20T18:37:14.845Z,11.67
2019-02-20T18:39:45.329Z,8.03
2019-02-20T18:42:15.701Z,8.13
2019-02-20T18:44:46.271Z,8.30
2019-02-20T18:47:17.107Z,7.90
2019-02-20T18:49:49.425Z,11.40
2019-02-20T18:52:19.698Z,10.80
2019-02-20T18:54:50.637Z,10.37
2019-02-20T18:57:21.178Z,8.77
2019-02-20T18:59:51.586Z,8.30
2019-02-20T19:02:22.511Z,9.30
2019-02-20T19:04:52.964Z,9.77
2019-02-20T19:07:24.122Z,8.20
2019-02-20T19:09:54.936Z,6.85
2019-02-20T19:13:28.880Z,6.70
2019-02-20T19:16:22.294Z,7.50
2019-02-20T19:19:33.424Z,7.13
2019-02-20T19:22:43.715Z,8.43
2019-02-20T19:25:53.341Z,6.90
2019-02-20T19:28:52.576Z,6.57
2019-02-20T19:32:04.113Z,6.90
2019-02-20T19:35:35.013Z,6.37
2019-02-20T19:38:44.462Z,6.10
2019-02-20T19:41:45.496Z,5.47
2019-02-20T19:44:44.257Z,7.53
2019-02-20T19:47:50.689Z,6.90
2019-02-20T19:51:14.277Z,7.10
2019-02-20T19:54:24.709Z,6.28
2019-02-20T19:57:28.408Z,7.33
2019-02-20T20:00:18.702Z,7.22
2019-02-20T20:03:05.270Z,7.70
2019-02-20T20:06:23.048Z,7.37
2019-02-20T20:09:32.758Z,5.90
2019-02-20T20:12:35.072Z,6.83
2019-02-20T20:15:42.264Z,6.47
2019-02-20T20:18:43.126Z,6.83
2019-02-20T20:21:42.020Z,7.10
2019-02-20T20:24:50.383Z,8.53
2019-02-20T20:28:00.697Z,7.93
2019-02-20T20:31:01.695Z,8.50
2019-02-20T20:33:55.406Z,9.43
2019-02-20T20:36:58.678Z,10.00
2019-02-20T20:40:19.427Z,9.13
2019-02-20T20:43:33.718Z,11.60
2019-02-20T20:46:18.591Z,12.77
2019-02-20T20:49:28.818Z,12.27
2019-02-20T20:52:38.999Z,11.95
2019-02-20T20:55:52.867Z,12.87
2019-02-20T20:58:53.868Z,12.17
2019-02-20T21:01:58.654Z,13.43
2019-02-20T21:05:10.939Z,13.23
2019-02-20T21:08:10.692Z,12.58
2019-02-20T21:11:10.618Z,13.40
2019-02-20T21:14:14.014Z,13.40
2019-02-20T21:17:37.467Z,13.30
2019-02-20T21:20:48.585Z,14.27
2019-02-20T21:24:01.959Z,15.87
2019-02-20T21:27:09.384Z,14.70
2019-02-20T21:30:17.923Z,15.97
2019-02-20T21:33:38.374Z,14.23
2019-02-20T21:36:31.107Z,15.17
2019-02-20T21:39:36.573Z,15.47
2019-02-20T21:42:43.766Z,15.27
2019-02-20T21:46:05.720Z,13.80
2019-02-20T21:49:24.551Z,14.23
2019-02-20T21:52:25.416Z,14.73
2019-02-20T21:55:42.381Z,14.60
2019-02-20T21:59:01.876Z,15.70
2019-02-20T22:01:47.901Z,12.53
2019-02-20T22:04:49.381Z,10.77
2019-02-20T22:08:07.473Z,10.97
2019-02-20T22:11:27.401Z,10.17
2019-02-20T22:14:26.762Z,12.70
2019-02-20T22:17:40.062Z,12.00
2019-02-20T22:20:46.150Z,11.77
2019-02-20T22:24:00.020Z,13.30
2019-02-20T22:26:51.586Z,9.00
2019-02-20T22:30:03.039Z,9.90
2019-02-20T22:33:00.145Z,10.30
2019-02-20T22:36:17.437Z,8.77
2019-02-20T22:39:19.571Z,9.30
2019-02-20T22:42:18.334Z,9.68
2019-02-20T22:45:17.672Z,9.87
2019-02-20T22:48:17.214Z,9.73
2019-02-20T22:51:10.779Z,9.70
2019-02-20T22:54:15.367Z,9.47
2019-02-20T22:57:42.063Z,8.97
2019-02-20T23:00:52.995Z,9.53
2019-02-20T23:03:49.737Z,8.63
2019-02-20T23:06:45.238Z,8.27
2019-02-20T23:09:53.710Z,8.37
2019-02-20T23:12:58.902Z,9.30
2019-02-20T23:15:29.231Z,7.57
2019-02-20T23:17:59.441Z,8.50
2019-02-20T23:20:29.587Z,8.27
2019-02-20T23:22:59.779Z,7.50
2019-02-20T23:25:29.938Z,7.30
2019-02-20T23:28:01.322Z,7.83
2019-02-20T23:30:31.522Z,7.97
2019-02-20T23:33:02.024Z,8.00
2019-02-20T23:35:32.504Z,7.37
2019-02-20T23:38:03.056Z,7.57
2019-02-20T23:40:33.283Z,7.80
2019-02-20T23:43:04.006Z,7.17
2019-02-20T23:45:35.874Z,7.67
2019-02-20T23:48:06.466Z,6.63
2019-02-20T23:50:36.701Z,6.30
2019-02-20T23:53:07.053Z,7.70
2019-02-20T23:55:37.244Z,8.17
2019-02-20T23:58:07.516Z,8.20
